createdAt,value
2019-03-05T00:01:59.174Z,86.29
2019-03-05T00:04:29.652Z,86.22
2019-03-05T00:06:59.862Z,86.29
2019-03-05T00:09:30.178Z,86.35
2019-03-05T00:12:00.566Z,86.51
2019-03-05T00:14:31.273Z,86.50
2019-03-05T00:17:01.800Z,86.71
2019-03-05T00:19:32.021Z,86.56
2019-03-05T00:22:03.208Z,85.93
2019-03-05T00:25:08.464Z,85.20
2019-03-05T00:28:20.731Z,85.71
2019-03-05T00:30:58.374Z,85.61
2019-03-05T00:33:55.964Z,85.52
2019-03-05T00:37:00.132Z,85.36
2019-03-05T00:40:05.265Z,85.79
2019-03-05T00:43:01.538Z,86.19
2019-03-05T00:46:08.848Z,86.50
2019-03-05T00:49:07.846Z,86.49
2019-03-05T00:52:20.707Z,86.81
2019-03-05T00:55:29.097Z,87.25
2019-03-05T00:58:32.643Z,87.75
2019-03-05T01:01:43.574Z,87.96
2019-03-05T01:04:46.027Z,88.41
2019-03-05T01:07:16.544Z,88.66
2019-03-05T01:09:46.712Z,89.14
2019-03-05T01:12:17.132Z,88.50
2019-03-05T01:14:47.862Z,88.25
2019-03-05T01:17:18.212Z,87.88
2019-03-05T01:19:48.398Z,87.79
2019-03-05T01:28:26.412Z,88.21
2019-03-05T01:31:05.754Z,88.87
2019-03-05T01:33:44.159Z,89.05
2019-03-05T01:36:17.984Z,89.25
2019-03-05T01:39:07.254Z,88.91
2019-03-05T01:41:37.479Z,88.68
2019-03-05T01:44:08.117Z,88.34
2019-03-05T01:46:38.451Z,88.31
2019-03-05T01:49:08.768Z,87.68
2019-03-05T01:51:39.132Z,87.58
2019-03-05T01:54:09.305Z,87.69
2019-03-05T01:56:39.425Z,87.81
2019-03-05T01:59:09.698Z,87.61
2019-03-05T02:01:39.932Z,87.73
2019-03-05T02:04:10.312Z,87.70
2019-03-05T02:06:40.974Z,87.23
2019-03-05T02:09:11.634Z,87.07
2019-03-05T02:11:41.847Z,87.50
2019-03-05T02:14:12.183Z,87.73
2019-03-05T02:16:42.704Z,87.79
2019-03-05T02:19:38.377Z,87.98
2019-03-05T02:22:30.588Z,88.50
2019-03-05T02:25:07.127Z,88.27
2019-03-05T02:28:01.980Z,88.58
2019-03-05T02:31:22.459Z,88.78
2019-03-05T02:34:07.653Z,89.11
2019-03-05T02:37:21.649Z,89.28
2019-03-05T02:40:38.888Z,89.58
2019-03-05T02:43:34.998Z,90.03
2019-03-05T02:47:01.592Z,90.49
2019-03-05T02:49:59.292Z,90.80
2019-03-05T02:53:03.502Z,90.77
2019-03-05T02:55:52.249Z,91.20
2019-03-05T02:58:21.901Z,91.27
2019-03-05T03:01:16.955Z,91.28
2019-03-05T03:03:50.490Z,90.86
2019-03-05T03:06:27.141Z,90.63
2019-03-05T03:09:34.561Z,90.23
2019-03-05T03:12:04.674Z,89.39
2019-03-05T03:14:34.975Z,89.26
2019-03-05T03:17:05.222Z,88.91
2019-03-05T03:19:35.541Z,88.53
2019-03-05T03:22:05.646Z,88.66
2019-03-05T03:24:35.902Z,88.43
2019-03-05T03:27:06.212Z,88.88
2019-03-05T03:29:36.456Z,89.08
2019-03-05T03:32:07.134Z,89.26
2019-03-05T03:34:37.470Z,89.36
2019-03-05T03:37:07.694Z,89.80
2019-03-05T03:39:37.904Z,89.86
2019-03-05T03:42:09.939Z,89.98
2019-03-05T03:44:40.290Z,90.30
2019-03-05T03:47:10.698Z,90.52
2019-03-05T03:49:41.159Z,90.55
2019-03-05T03:52:11.790Z,90.65
2019-03-05T03:54:42.062Z,90.81
2019-03-05T03:57:12.310Z,90.87
2019-03-05T03:59:42.677Z,91.45
2019-03-05T04:02:12.887Z,91.73
2019-03-05T04:04:43.244Z,92.08
2019-03-05T04:07:13.945Z,92.20
2019-03-05T04:09:44.175Z,92.19
2019-03-05T04:12:15.421Z,91.97
2019-03-05T04:14:45.677Z,91.98
2019-03-05T04:17:15.804Z,91.90
2019-03-05T04:19:46.137Z,91.45
2019-03-05T04:22:16.284Z,91.44
2019-03-05T04:24:46.633Z,91.32
2019-03-05T04:27:16.835Z,91.46
2019-03-05T04:29:47.144Z,91.43
2019-03-05T04:32:17.700Z,91.66
2019-03-05T04:34:47.983Z,91.83
2019-03-05T04:37:18.360Z,92.08
2019-03-05T04:39:48.659Z,92.02
2019-03-05T04:42:18.914Z,92.27
2019-03-05T04:44:57.982Z,92.47
2019-03-05T04:47:28.418Z,92.86
2019-03-05T04:50:09.413Z,93.12
2019-03-05T04:52:39.866Z,93.35
2019-03-05T04:55:11.161Z,93.37
2019-03-05T04:57:41.340Z,93.45
2019-03-05T05:00:14.396Z,93.54
2019-03-05T05:02:44.661Z,93.58
2019-03-05T05:05:14.890Z,93.72
2019-03-05T05:07:45.172Z,94.10
2019-03-05T05:10:15.260Z,94.01
2019-03-05T05:12:45.643Z,94.11
2019-03-05T05:15:30.309Z,94.03
2019-03-05T05:18:00.562Z,93.79
2019-03-05T05:20:30.860Z,94.81
2019-03-05T05:23:01.136Z,94.55
2019-03-05T05:25:31.643Z,94.80
2019-03-05T05:28:02.050Z,94.95
2019-03-05T05:30:41.126Z,94.77
2019-03-05T05:33:11.559Z,94.36
2019-03-05T05:35:41.790Z,94.02
2019-03-05T05:38:11.964Z,93.60
2019-03-05T05:40:43.806Z,93.66
2019-03-05T05:43:16.848Z,93.62
2019-03-05T05:45:50.117Z,93.54
2019-03-05T05:48:20.557Z,93.46
2019-03-05T05:50:50.708Z,93.30
2019-03-05T05:53:21.057Z,93.49
2019-03-05T05:55:51.233Z,93.33
2019-03-05T05:58:21.370Z,93.49
2019-03-05T06:00:53.949Z,93.40
2019-03-05T06:03:24.309Z,93.34
2019-03-05T06:05:54.628Z,93.34
2019-03-05T06:08:24.930Z,93.28
2019-03-05T06:10:55.250Z,93.10
2019-03-05T06:13:25.434Z,92.87
2019-03-05T06:15:55.801Z,93.05
2019-03-05T06:18:26.181Z,92.86
2019-03-05T06:20:56.680Z,92.94
2019-03-05T06:23:26.941Z,92.86
2019-03-05T06:25:57.095Z,92.88
2019-03-05T06:28:27.419Z,92.76
2019-03-05T06:30:57.907Z,92.71
2019-03-05T06:33:28.495Z,92.57
2019-03-05T06:35:58.805Z,92.35
2019-03-05T06:38:29.463Z,92.06
2019-03-05T06:41:00.227Z,91.00
2019-03-05T06:43:30.878Z,90.90
2019-03-05T06:46:01.125Z,89.87
2019-03-05T06:48:32.018Z,89.68
2019-03-05T06:51:02.359Z,89.14
2019-03-05T06:53:32.605Z,88.69
2019-03-05T06:56:02.926Z,88.25
2019-03-05T06:58:33.249Z,87.98
2019-03-05T07:01:03.660Z,87.48
2019-03-05T07:03:34.030Z,85.77
2019-03-05T07:06:40.218Z,84.69
2019-03-05T07:09:25.085Z,83.60
2019-03-05T07:12:28.130Z,83.06
2019-03-05T07:15:47.919Z,82.58
2019-03-05T07:18:31.293Z,82.72
2019-03-05T07:22:01.116Z,81.76
2019-03-05T07:24:45.699Z,81.73
2019-03-05T07:27:18.895Z,80.82
2019-03-05T07:29:49.406Z,80.27
2019-03-05T07:32:20.070Z,80.32
2019-03-05T07:34:51.082Z,79.68
2019-03-05T07:37:21.841Z,79.52
2019-03-05T07:39:52.973Z,79.05
2019-03-05T07:42:23.619Z,78.45
2019-03-05T07:44:54.282Z,78.50
2019-03-05T07:47:24.670Z,77.23
2019-03-05T07:49:55.367Z,76.49
2019-03-05T07:52:26.016Z,75.81
2019-03-05T07:54:56.252Z,74.91
2019-03-05T07:57:26.946Z,75.09
2019-03-05T07:59:57.749Z,73.90
2019-03-05T08:02:28.421Z,73.97
2019-03-05T08:04:58.980Z,72.47
2019-03-05T08:07:29.362Z,73.26
2019-03-05T08:10:05.417Z,72.78
2019-03-05T08:13:02.722Z,72.78
2019-03-05T08:16:02.391Z,72.58
2019-03-05T08:18:29.276Z,71.67
2019-03-05T08:20:59.539Z,71.78
2019-03-05T08:23:31.673Z,71.12
2019-03-05T08:26:01.973Z,63.33
2019-03-05T08:28:32.330Z,59.17
2019-03-05T08:31:02.988Z,56.46
2019-03-05T08:33:33.486Z,53.33
2019-03-05T08:36:05.546Z,51.22
2019-03-05T08:38:36.071Z,49.38
2019-03-05T08:41:06.918Z,46.60
2019-03-05T08:43:37.396Z,46.72
2019-03-05T08:46:08.213Z,46.35
2019-03-05T08:48:38.621Z,44.28
2019-03-05T08:51:09.043Z,44.20
2019-03-05T08:53:49.220Z,42.67
2019-03-05T08:56:11.884Z,42.21
2019-03-05T08:58:42.374Z,42.19
2019-03-05T09:01:12.851Z,39.92
2019-03-05T09:03:43.570Z,39.62
2019-03-05T09:06:13.982Z,38.63
2019-03-05T09:08:45.559Z,38.40
2019-03-05T09:11:16.213Z,38.29
2019-03-05T09:13:47.080Z,36.75
2019-03-05T09:16:18.615Z,36.40
2019-03-05T09:18:49.364Z,35.75
2019-03-05T09:21:19.987Z,36.63
2019-03-05T09:23:50.781Z,34.31
2019-03-05T09:26:21.174Z,34.39
2019-03-05T09:28:52.713Z,36.72
2019-03-05T09:31:23.587Z,36.94
2019-03-05T09:33:54.123Z,35.22
2019-03-05T09:36:24.780Z,38.21
2019-03-05T09:38:55.268Z,35.23
2019-03-05T09:41:26.017Z,32.16
2019-03-05T09:43:56.613Z,34.41
2019-03-05T09:46:27.214Z,33.47
2019-03-05T09:48:58.546Z,32.37
2019-03-05T09:51:29.069Z,30.96
2019-03-05T09:53:59.426Z,31.94
2019-03-05T09:56:30.158Z,32.51
2019-03-05T09:59:00.690Z,31.48
2019-03-05T10:01:30.997Z,31.36
2019-03-05T10:04:01.277Z,31.66
2019-03-05T10:06:31.967Z,27.88
2019-03-05T10:09:02.408Z,27.88
2019-03-05T10:11:34.393Z,28.23
2019-03-05T10:14:04.826Z,28.35
2019-03-05T10:16:35.206Z,28.75
2019-03-05T10:19:06.007Z,29.03
2019-03-05T10:21:45.790Z,29.68
2019-03-05T10:24:10.784Z,30.72
2019-03-05T10:26:40.896Z,30.52
2019-03-05T10:29:11.375Z,29.16
2019-03-05T10:31:42.047Z,32.87
2019-03-05T10:34:12.486Z,33.58
2019-03-05T10:36:42.803Z,36.26
2019-03-05T10:39:30.842Z,37.09
2019-03-05T10:41:59.538Z,37.19
2019-03-05T10:44:29.865Z,37.24
2019-03-05T10:47:00.508Z,37.33
2019-03-05T10:49:30.869Z,37.02
2019-03-05T10:52:01.292Z,37.66
2019-03-05T10:54:31.811Z,35.98
2019-03-05T10:57:02.424Z,37.81
2019-03-05T10:59:32.781Z,39.61
2019-03-05T11:02:03.179Z,38.02
2019-03-05T11:04:33.695Z,38.75
2019-03-05T11:07:04.251Z,38.12
2019-03-05T11:09:34.521Z,38.39
2019-03-05T11:12:05.837Z,37.44
2019-03-05T11:14:36.211Z,39.39
2019-03-05T11:17:06.905Z,36.46
2019-03-05T11:19:37.295Z,37.65
2019-03-05T11:22:07.676Z,34.96
2019-03-05T11:24:38.338Z,36.72
2019-03-05T11:27:08.716Z,39.76
2019-03-05T11:29:39.217Z,38.53
2019-03-05T11:32:10.091Z,40.03
2019-03-05T11:34:40.547Z,39.65
2019-03-05T11:37:10.854Z,39.65
2019-03-05T11:39:41.806Z,41.79
2019-03-05T11:42:11.942Z,41.24
2019-03-05T11:44:42.373Z,40.82
2019-03-05T11:47:13.128Z,40.58
2019-03-05T11:49:43.470Z,39.69
2019-03-05T11:52:13.688Z,40.06
2019-03-05T11:54:43.941Z,41.27
2019-03-05T11:57:14.283Z,40.58
2019-03-05T11:59:44.811Z,41.30
2019-03-05T12:02:21.704Z,43.83
2019-03-05T12:04:47.658Z,42.49
2019-03-05T12:07:18.036Z,44.15
2019-03-05T12:09:48.311Z,43.76
2019-03-05T12:12:18.434Z,45.18
2019-03-05T12:14:49.024Z,45.50
2019-03-05T12:17:19.501Z,47.24
2019-03-05T12:19:50.013Z,48.51
2019-03-05T12:22:20.221Z,49.14
2019-03-05T12:24:51.726Z,50.14
2019-03-05T12:27:22.233Z,52.08
2019-03-05T12:29:52.754Z,51.78
2019-03-05T12:32:22.961Z,52.06
2019-03-05T12:34:53.506Z,51.30
2019-03-05T12:37:24.086Z,49.12
2019-03-05T12:39:54.382Z,49.89
2019-03-05T12:42:25.132Z,48.20
2019-03-05T12:44:55.567Z,47.51
2019-03-05T12:47:26.077Z,47.52
2019-03-05T12:49:56.466Z,49.24
2019-03-05T12:52:27.026Z,49.50
2019-03-05T12:54:57.417Z,49.96
2019-03-05T12:57:27.771Z,49.62
2019-03-05T12:59:58.443Z,50.30
2019-03-05T13:02:28.847Z,50.46
2019-03-05T13:04:59.210Z,48.71
2019-03-05T13:07:29.693Z,48.51
2019-03-05T13:10:02.441Z,48.28
2019-03-05T13:12:35.934Z,48.31
2019-03-05T13:15:08.666Z,48.47
2019-03-05T13:17:39.163Z,49.08
2019-03-05T13:20:12.052Z,49.26
2019-03-05T13:22:42.674Z,50.75
2019-03-05T13:25:14.306Z,51.21
2019-03-05T13:27:44.615Z,51.59
2019-03-05T13:30:17.493Z,51.47
2019-03-05T13:32:47.892Z,51.75
2019-03-05T13:35:18.650Z,53.28
2019-03-05T13:37:50.872Z,52.64
2019-03-05T13:40:23.167Z,53.51
2019-03-05T13:42:53.866Z,54.50
2019-03-05T13:45:27.896Z,55.11
2019-03-05T13:48:14.706Z,55.64
2019-03-05T13:51:11.040Z,56.13
2019-03-05T13:54:09.533Z,57.19
2019-03-05T13:57:19.477Z,58.40
2019-03-05T13:59:50.664Z,58.51
2019-03-05T14:02:29.590Z,59.30
2019-03-05T14:05:14.621Z,60.24
2019-03-05T14:08:38.334Z,60.48
2019-03-05T14:11:08.521Z,62.36
2019-03-05T14:13:38.969Z,63.05
2019-03-05T14:16:11.345Z,63.87
2019-03-05T14:18:42.157Z,64.50
2019-03-05T14:21:12.723Z,65.46
2019-03-05T14:23:43.318Z,65.83
2019-03-05T14:26:13.673Z,66.75
2019-03-05T14:28:44.167Z,66.69
2019-03-05T14:31:15.058Z,67.64
2019-03-05T14:33:45.519Z,67.94
2019-03-05T14:36:15.971Z,68.86
2019-03-05T14:38:46.630Z,69.84
2019-03-05T14:41:17.074Z,70.03
2019-03-05T14:43:47.314Z,70.22
2019-03-05T14:46:18.298Z,70.98
2019-03-05T14:48:49.459Z,70.83
2019-03-05T14:51:21.165Z,71.34
2019-03-05T14:53:51.799Z,71.30
2019-03-05T14:56:22.682Z,71.45
2019-03-05T14:58:55.088Z,72.55
2019-03-05T15:01:25.599Z,73.56
2019-03-05T15:03:56.233Z,74.36
2019-03-05T15:06:26.855Z,74.37
2019-03-05T15:08:57.528Z,76.39
2019-03-05T15:11:28.217Z,76.50
2019-03-05T15:13:58.843Z,77.10
2019-03-05T15:16:29.601Z,76.91
2019-03-05T15:19:00.222Z,77.97
2019-03-05T15:21:38.752Z,78.70
2019-03-05T15:24:09.439Z,79.04
2019-03-05T15:26:40.220Z,79.43
2019-03-05T15:29:11.148Z,80.05
2019-03-05T15:31:41.983Z,80.15
2019-03-05T15:34:12.749Z,80.45
2019-03-05T15:36:43.426Z,81.91
2019-03-05T15:39:13.907Z,81.63
2019-03-05T15:41:45.865Z,81.70
2019-03-05T15:44:17.337Z,82.37
2019-03-05T15:46:47.728Z,82.70
2019-03-05T15:49:19.327Z,83.45
2019-03-05T15:51:49.635Z,83.45
2019-03-05T15:54:19.959Z,83.30
2019-03-05T15:56:50.418Z,83.29
2019-03-05T15:59:20.661Z,83.22
2019-03-05T16:01:51.392Z,84.28
2019-03-05T16:04:21.702Z,84.40
2019-03-05T16:06:52.168Z,85.64
2019-03-05T16:09:22.744Z,86.12
2019-03-05T16:11:53.464Z,86.69
2019-03-05T16:14:24.055Z,86.07
2019-03-05T16:16:54.617Z,86.63
2019-03-05T16:19:25.137Z,86.80
2019-03-05T16:21:56.102Z,86.07
2019-03-05T16:24:26.433Z,87.17
2019-03-05T16:26:57.883Z,86.75
2019-03-05T16:29:29.480Z,86.83
2019-03-05T16:32:06.964Z,87.51
2019-03-05T16:34:59.549Z,88.05
2019-03-05T16:37:45.633Z,87.35
2019-03-05T16:40:29.305Z,87.78
2019-03-05T16:43:15.658Z,88.39
2019-03-05T16:45:55.927Z,87.42
2019-03-05T16:48:41.606Z,87.50
2019-03-05T16:51:19.990Z,87.36
2019-03-05T16:54:08.157Z,87.32
2019-03-05T16:56:47.774Z,88.68
2019-03-05T16:59:43.473Z,89.18
2019-03-05T17:02:30.268Z,88.42
2019-03-05T17:05:22.222Z,89.07
2019-03-05T17:08:17.389Z,87.97
2019-03-05T17:11:05.649Z,87.64
2019-03-05T17:13:36.296Z,87.63
2019-03-05T17:16:06.706Z,87.58
2019-03-05T17:18:37.226Z,88.59
2019-03-05T17:21:07.603Z,89.17
2019-03-05T17:23:41.719Z,88.81
2019-03-05T17:26:12.434Z,89.39
2019-03-05T17:28:42.883Z,88.35
2019-03-05T17:31:14.634Z,90.38
2019-03-05T17:33:45.170Z,90.61
2019-03-05T17:36:15.766Z,90.26
2019-03-05T17:38:50.163Z,90.89
2019-03-05T17:41:21.051Z,90.25
2019-03-05T17:43:51.743Z,90.74
2019-03-05T17:46:22.109Z,91.00
2019-03-05T17:48:52.919Z,91.42
2019-03-05T17:51:23.378Z,90.95
2019-03-05T17:53:54.073Z,91.04
2019-03-05T17:56:24.632Z,91.15
2019-03-05T17:58:55.381Z,91.23
2019-03-05T18:01:25.977Z,91.67
2019-03-05T18:03:56.434Z,91.87
2019-03-05T18:06:27.166Z,92.06
2019-03-05T18:08:57.612Z,92.34
2019-03-05T18:11:28.072Z,93.13
2019-03-05T18:13:58.888Z,92.66
2019-03-05T18:16:29.639Z,92.98
2019-03-05T18:19:00.168Z,92.89
2019-03-05T18:21:31.185Z,92.94
2019-03-05T18:24:02.156Z,92.46
2019-03-05T18:26:32.942Z,93.59
2019-03-05T18:29:03.995Z,93.82
2019-03-05T18:31:34.494Z,93.84
2019-03-05T18:34:05.397Z,94.25
2019-03-05T18:36:35.646Z,94.04
2019-03-05T18:39:06.781Z,93.80
2019-03-05T18:41:38.057Z,94.43
2019-03-05T18:44:08.575Z,94.37
2019-03-05T18:46:39.473Z,94.70
2019-03-05T18:49:10.049Z,94.99
2019-03-05T18:51:40.549Z,94.88
2019-03-05T18:54:10.862Z,95.09
2019-03-05T18:56:41.280Z,94.70
2019-03-05T18:59:13.406Z,94.57
2019-03-05T19:01:45.965Z,94.72
2019-03-05T19:04:17.748Z,94.27
2019-03-05T19:06:48.533Z,93.71
2019-03-05T19:09:23.809Z,94.05
2019-03-05T19:11:54.793Z,94.73
2019-03-05T19:14:25.303Z,94.39
2019-03-05T19:16:58.104Z,95.00
2019-03-05T19:19:28.934Z,94.72
2019-03-05T19:21:59.435Z,94.92
2019-03-05T19:24:29.840Z,95.07
2019-03-05T19:27:01.788Z,95.43
2019-03-05T19:29:33.302Z,95.75
2019-03-05T19:32:03.898Z,95.54
2019-03-05T19:34:34.574Z,95.53
2019-03-05T19:37:06.364Z,95.00
2019-03-05T19:39:36.884Z,94.10
2019-03-05T19:42:07.659Z,94.00
2019-03-05T19:44:38.203Z,94.78
2019-03-05T19:47:09.679Z,95.09
2019-03-05T19:49:40.452Z,95.14
2019-03-05T19:52:11.091Z,95.17
2019-03-05T19:54:41.721Z,95.12
2019-03-05T19:57:12.287Z,95.20
2019-03-05T19:59:43.144Z,95.23
2019-03-05T20:02:13.571Z,95.10
2019-03-05T20:04:43.929Z,95.04
2019-03-05T20:07:14.596Z,95.01
2019-03-05T20:09:44.997Z,95.20
2019-03-05T20:12:16.763Z,95.42
2019-03-05T20:14:47.415Z,95.04
2019-03-05T20:17:17.784Z,94.64
2019-03-05T20:19:48.057Z,95.08
2019-03-05T20:22:18.968Z,95.75
2019-03-05T20:24:50.084Z,95.99
2019-03-05T20:27:21.311Z,95.70
2019-03-05T20:29:54.498Z,95.78
2019-03-05T20:32:25.842Z,96.09
2019-03-05T20:34:56.369Z,96.11
2019-03-05T20:37:26.900Z,96.29
2019-03-05T20:39:57.382Z,96.19
2019-03-05T20:42:30.082Z,96.35
2019-03-05T20:45:01.246Z,96.14
2019-03-05T20:47:33.543Z,95.92
2019-03-05T20:50:04.834Z,95.97
2019-03-05T20:52:39.439Z,96.22
2019-03-05T20:55:12.281Z,96.39
2019-03-05T20:57:43.012Z,96.33
2019-03-05T21:00:26.799Z,96.39
2019-03-05T21:03:00.264Z,96.71
2019-03-05T21:05:35.544Z,96.87
2019-03-05T21:08:09.350Z,96.65
2019-03-05T21:10:42.429Z,96.47
2019-03-05T21:13:12.893Z,96.58
2019-03-05T21:15:43.751Z,96.89
2019-03-05T21:18:14.222Z,96.88
2019-03-05T21:20:44.808Z,96.89
2019-03-05T21:23:15.430Z,97.07
2019-03-05T21:25:46.300Z,97.33
2019-03-05T21:28:17.323Z,97.58
2019-03-05T21:30:47.696Z,97.69
2019-03-05T21:33:18.293Z,97.66
2019-03-05T21:35:49.184Z,97.58
2019-03-05T21:38:19.537Z,97.57
2019-03-05T21:40:50.107Z,97.62
2019-03-05T21:43:21.010Z,97.63
2019-03-05T21:45:51.871Z,97.64
2019-03-05T21:48:22.080Z,97.83
2019-03-05T21:50:54.230Z,97.95
2019-03-05T21:53:24.725Z,97.93
2019-03-05T21:55:55.589Z,97.82
2019-03-05T21:58:26.107Z,97.74
2019-03-05T22:00:56.709Z,97.94
2019-03-05T22:03:27.095Z,98.15
2019-03-05T22:05:58.822Z,97.96
2019-03-05T22:08:29.446Z,97.71
2019-03-05T22:11:01.515Z,97.58
2019-03-05T22:13:34.741Z,97.49
2019-03-05T22:16:07.587Z,97.60
2019-03-05T22:18:38.128Z,97.84
2019-03-05T22:21:09.062Z,98.06
2019-03-05T22:23:39.471Z,97.82
2019-03-05T22:26:09.947Z,97.79
2019-03-05T22:28:40.738Z,97.88
2019-03-05T22:31:12.151Z,98.09
2019-03-05T22:33:43.650Z,98.27
2019-03-05T22:36:15.527Z,99.26
2019-03-05T22:38:45.693Z,99.88
2019-03-05T22:41:15.995Z,100.00
2019-03-05T22:43:47.278Z,100.00
2019-03-05T22:46:18.913Z,100.00
2019-03-05T22:48:49.157Z,100.00
2019-03-05T22:51:19.965Z,100.00
2019-03-05T22:53:50.636Z,100.00
2019-03-05T22:56:21.014Z,100.00
2019-03-05T22:58:51.219Z,100.00
2019-03-05T23:01:35.947Z,99.94
2019-03-05T23:04:07.094Z,99.71
2019-03-05T23:06:37.558Z,99.46
2019-03-05T23:09:14.022Z,99.39
2019-03-05T23:25:33.258Z,98.86
2019-03-05T23:28:03.847Z,98.29
2019-03-05T23:30:34.034Z,98.16
2019-03-05T23:33:04.372Z,98.13
2019-03-05T23:35:34.629Z,98.27
2019-03-05T23:38:05.141Z,98.44
2019-03-05T23:40:35.514Z,98.57
2019-03-05T23:43:06.179Z,98.70
2019-03-05T23:45:36.928Z,98.86
2019-03-05T23:48:07.376Z,98.84
2019-03-05T23:50:37.641Z,98.70
2019-03-05T23:53:07.831Z,98.42
2019-03-05T23:55:38.098Z,98.35
2019-03-05T23:58:08.276Z,98.47
